sensor_id;sensor_type;location;lat;lon;timestamp;pressure;altitude;pressure_sealevel;temperature;humidity
55217;BME280;41086;46.736;15.666;2023-05-23T00:00:48;98196.00;;;14.82;100.00
55217;BME280;41086;46.736;15.666;2023-05-23T00:03:17;98187.28;;;14.80;100.00
55217;BME280;41086;46.736;15.666;2023-05-23T00:05:49;98180.28;;;14.79;100.00
55217;BME280;41086;46.736;15.666;2023-05-23T00:08:17;98180.69;;;14.75;100.00
55217;BME280;41086;46.736;15.666;2023-05-23T00:10:44;98171.25;;;14.61;100.00
55217;BME280;41086;46.736;15.666;2023-05-23T00:13:11;98163.09;;;14.53;100.00
55217;BME280;41086;46.736;15.666;2023-05-23T00:15:38;98160.69;;;14.50;100.00
55217;BME280;41086;46.736;15.666;2023-05-23T00:18:08;98163.47;;;14.48;100.00
55217;BME280;41086;46.736;15.666;2023-05-23T00:20:37;98160.25;;;14.45;100.00
55217;BME280;41086;46.736;15.666;2023-05-23T00:23:09;98153.78;;;14.37;100.00
55217;BME280;41086;46.736;15.666;2023-05-23T00:25:36;98152.09;;;14.46;100.00
55217;BME280;41086;46.736;15.666;2023-05-23T00:28:03;98149.78;;;14.53;100.00
55217;BME280;41086;46.736;15.666;2023-05-23T00:30:32;98150.69;;;14.52;100.00
55217;BME280;41086;46.736;15.666;2023-05-23T00:32:59;98149.88;;;14.41;100.00
55217;BME280;41086;46.736;15.666;2023-05-23T00:35:26;98145.78;;;14.28;100.00
55217;BME280;41086;46.736;15.666;2023-05-23T00:37:53;98142.06;;;14.19;100.00
55217;BME280;41086;46.736;15.666;2023-05-23T00:40:21;98141.50;;;14.15;100.00
55217;BME280;41086;46.736;15.666;2023-05-23T00:42:48;98142.22;;;14.17;100.00
55217;BME280;41086;46.736;15.666;2023-05-23T00:45:15;98140.53;;;14.16;100.00
55217;BME280;41086;46.736;15.666;2023-05-23T00:47:45;98139.69;;;14.16;100.00
55217;BME280;41086;46.736;15.666;2023-05-23T00:50:14;98143.44;;;14.04;100.00
55217;BME280;41086;46.736;15.666;2023-05-23T00:52:42;98139.34;;;14.00;100.00
55217;BME280;41086;46.736;15.666;2023-05-23T00:55:10;98141.31;;;13.97;100.00
55217;BME280;41086;46.736;15.666;2023-05-23T00:57:37;98147.91;;;13.93;100.00
55217;BME280;41086;46.736;15.666;2023-05-23T01:00:13;98143.78;;;13.89;100.00
55217;BME280;41086;46.736;15.666;2023-05-23T01:02:45;98141.28;;;13.88;100.00
55217;BME280;41086;46.736;15.666;2023-05-23T01:05:14;98140.28;;;13.89;100.00
55217;BME280;41086;46.736;15.666;2023-05-23T01:07:47;98143.78;;;13.89;100.00
55217;BME280;41086;46.736;15.666;2023-05-23T01:10:16;98140.28;;;13.89;100.00
55217;BME280;41086;46.736;15.666;2023-05-23T01:15:19;98136.63;;;13.80;100.00
55217;BME280;41086;46.736;15.666;2023-05-23T01:18:06;98135.59;;;13.71;100.00
55217;BME280;41086;46.736;15.666;2023-05-23T01:20:40;98134.63;;;13.72;100.00
55217;BME280;41086;46.736;15.666;2023-05-23T01:23:43;98131.25;;;13.70;100.00
55217;BME280;41086;46.736;15.666;2023-05-23T01:26:44;98124.91;;;13.62;100.00
55217;BME280;41086;46.736;15.666;2023-05-23T01:29:26;98127.81;;;13.49;100.00
55217;BME280;41086;46.736;15.666;2023-05-23T01:31:56;98124.41;;;13.47;100.00
55217;BME280;41086;46.736;15.666;2023-05-23T01:34:24;98110.78;;;13.40;100.00
55217;BME280;41086;46.736;15.666;2023-05-23T01:36:54;98122.41;;;13.39;100.00
55217;BME280;41086;46.736;15.666;2023-05-23T01:39:22;98116.00;;;13.42;100.00
55217;BME280;41086;46.736;15.666;2023-05-23T01:41:50;98115.16;;;13.41;100.00
55217;BME280;41086;46.736;15.666;2023-05-23T01:44:18;98110.78;;;13.40;100.00
55217;BME280;41086;46.736;15.666;2023-05-23T01:46:47;98106.75;;;13.46;100.00
55217;BME280;41086;46.736;15.666;2023-05-23T01:49:15;98102.72;;;13.51;100.00
55217;BME280;41086;46.736;15.666;2023-05-23T01:51:44;98104.41;;;13.52;100.00
55217;BME280;41086;46.736;15.666;2023-05-23T01:54:12;98111.69;;;13.50;100.00
55217;BME280;41086;46.736;15.666;2023-05-23T01:56:40;98095.25;;;13.45;100.00
55217;BME280;41086;46.736;15.666;2023-05-23T01:59:08;98111.38;;;13.44;100.00
55217;BME280;41086;46.736;15.666;2023-05-23T02:01:36;98111.38;;;13.44;100.00
55217;BME280;41086;46.736;15.666;2023-05-23T02:04:03;98112.59;;;13.40;100.00
55217;BME280;41086;46.736;15.666;2023-05-23T02:06:30;98106.44;;;13.39;100.00
55217;BME280;41086;46.736;15.666;2023-05-23T02:08:57;98110.78;;;13.40;100.00
55217;BME280;41086;46.736;15.666;2023-05-23T02:11:24;98106.28;;;13.41;100.00
55217;BME280;41086;46.736;15.666;2023-05-23T02:13:52;98109.50;;;13.35;100.00
55217;BME280;41086;46.736;15.666;2023-05-23T02:16:19;98111.59;;;13.31;100.00
55217;BME280;41086;46.736;15.666;2023-05-23T02:18:46;98103.88;;;13.28;100.00
55217;BME280;41086;46.736;15.666;2023-05-23T02:21:12;98110.38;;;13.24;100.00
55217;BME280;41086;46.736;15.666;2023-05-23T02:23:39;98107.97;;;13.21;100.00
55217;BME280;41086;46.736;15.666;2023-05-23T02:26:07;98103.75;;;13.18;100.00
55217;BME280;41086;46.736;15.666;2023-05-23T02:28:34;98095.78;;;13.18;100.00
55217;BME280;41086;46.736;15.666;2023-05-23T02:31:01;98097.59;;;13.18;100.00
55217;BME280;41086;46.736;15.666;2023-05-23T02:33:28;98091.81;;;13.13;100.00
55217;BME280;41086;46.736;15.666;2023-05-23T02:35:55;98101.06;;;13.08;100.00
55217;BME280;41086;46.736;15.666;2023-05-23T02:38:22;98093.84;;;12.99;100.00
55217;BME280;41086;46.736;15.666;2023-05-23T02:40:48;98092.53;;;12.94;100.00
55217;BME280;41086;46.736;15.666;2023-05-23T02:43:19;98091.97;;;12.90;100.00
55217;BME280;41086;46.736;15.666;2023-05-23T02:45:46;98100.47;;;12.84;100.00
55217;BME280;41086;46.736;15.666;2023-05-23T02:48:13;98097.94;;;12.82;100.00
55217;BME280;41086;46.736;15.666;2023-05-23T02:50:40;98096.38;;;12.80;100.00
55217;BME280;41086;46.736;15.666;2023-05-23T02:53:07;98100.38;;;12.74;100.00
55217;BME280;41086;46.736;15.666;2023-05-23T02:55:34;98094.59;;;12.69;100.00
55217;BME280;41086;46.736;15.666;2023-05-23T02:58:02;98096.69;;;12.66;100.00
55217;BME280;41086;46.736;15.666;2023-05-23T03:00:31;98091.88;;;12.59;100.00
55217;BME280;41086;46.736;15.666;2023-05-23T03:02:58;98090.91;;;12.60;100.00
55217;BME280;41086;46.736;15.666;2023-05-23T03:05:25;98093.81;;;12.57;100.00
55217;BME280;41086;46.736;15.666;2023-05-23T03:07:52;98089.47;;;12.56;100.00
55217;BME280;41086;46.736;15.666;2023-05-23T03:10:20;98097.56;;;12.55;100.00
55217;BME280;41086;46.736;15.666;2023-05-23T03:12:47;98084.66;;;12.50;100.00
55217;BME280;41086;46.736;15.666;2023-05-23T03:15:15;98086.47;;;12.50;100.00
55217;BME280;41086;46.736;15.666;2023-05-23T03:17:43;98082.50;;;12.44;100.00
55217;BME280;41086;46.736;15.666;2023-05-23T03:20:10;98077.31;;;12.42;100.00
55217;BME280;41086;46.736;15.666;2023-05-23T03:22:37;98072.25;;;12.39;100.00
55217;BME280;41086;46.736;15.666;2023-05-23T03:25:05;98067.31;;;12.35;100.00
55217;BME280;41086;46.736;15.666;2023-05-23T03:27:32;98064.66;;;12.35;100.00
55217;BME280;41086;46.736;15.666;2023-05-23T03:29:59;98062.50;;;12.29;100.00
55217;BME280;41086;46.736;15.666;2023-05-23T03:32:25;98065.06;;;12.30;100.00
55217;BME280;41086;46.736;15.666;2023-05-23T03:34:52;98057.34;;;12.27;100.00
55217;BME280;41086;46.736;15.666;2023-05-23T03:37:19;98055.97;;;12.33;100.00
55217;BME280;41086;46.736;15.666;2023-05-23T03:39:46;98057.66;;;12.34;100.00
55217;BME280;41086;46.736;15.666;2023-05-23T03:42:13;98051.00;;;12.39;100.00
55217;BME280;41086;46.736;15.666;2023-05-23T03:44:40;98057.88;;;12.42;100.00
55217;BME280;41086;46.736;15.666;2023-05-23T03:47:08;98064.44;;;12.38;100.00
55217;BME280;41086;46.736;15.666;2023-05-23T03:49:38;98054.78;;;12.26;100.00
55217;BME280;41086;46.736;15.666;2023-05-23T03:52:05;98054.78;;;12.26;100.00
55217;BME280;41086;46.736;15.666;2023-05-23T03:54:33;98055.63;;;12.26;100.00
55217;BME280;41086;46.736;15.666;2023-05-23T03:56:59;98046.06;;;12.35;100.00
55217;BME280;41086;46.736;15.666;2023-05-23T03:59:26;98053.41;;;12.42;100.00
55217;BME280;41086;46.736;15.666;2023-05-23T04:01:54;98053.41;;;12.42;100.00
55217;BME280;41086;46.736;15.666;2023-05-23T04:04:24;98053.41;;;12.42;100.00
55217;BME280;41086;46.736;15.666;2023-05-23T04:06:51;98053.41;;;12.42;100.00
55217;BME280;41086;46.736;15.666;2023-05-23T04:09:18;56955.81;;;-143.57;100.00
55217;BME280;41086;46.736;15.666;2023-05-23T04:11:47;93687.78;;;-143.57;100.00
55217;BME280;41086;46.736;15.666;2023-05-23T04:14:14;98053.41;;;12.42;100.00
55217;BME280;41086;46.736;15.666;2023-05-23T04:16:41;56955.81;;;-143.57;100.00
55217;BME280;41086;46.736;15.666;2023-05-23T04:19:11;56955.81;;;-143.57;100.00
55217;BME280;41086;46.736;15.666;2023-05-23T04:21:38;56955.81;;;-143.57;100.00
55217;BME280;41086;46.736;15.666;2023-05-23T04:24:08;56955.81;;;-143.57;100.00
55217;BME280;41086;46.736;15.666;2023-05-23T04:26:35;56955.81;;;-143.57;100.00
55217;BME280;41086;46.736;15.666;2023-05-23T04:29:03;56955.81;;;-143.57;100.00
55217;BME280;41086;46.736;15.666;2023-05-23T04:31:34;56955.81;;;-143.57;100.00
55217;BME280;41086;46.736;15.666;2023-05-23T04:34:01;56955.81;;;-143.57;100.00
55217;BME280;41086;46.736;15.666;2023-05-23T04:36:29;56955.81;;;-143.57;100.00
55217;BME280;41086;46.736;15.666;2023-05-23T04:38:57;56955.81;;;-143.57;100.00
55217;BME280;41086;46.736;15.666;2023-05-23T04:41:28;56955.81;;;-143.57;100.00
55217;BME280;41086;46.736;15.666;2023-05-23T04:44:15;56955.81;;;-143.57;100.00
55217;BME280;41086;46.736;15.666;2023-05-23T04:46:48;56955.81;;;-143.57;100.00
55217;BME280;41086;46.736;15.666;2023-05-23T04:49:22;56955.81;;;-143.57;100.00
55217;BME280;41086;46.736;15.666;2023-05-23T04:51:49;56955.81;;;-143.57;100.00
55217;BME280;41086;46.736;15.666;2023-05-23T04:54:26;56955.81;;;-143.57;100.00
55217;BME280;41086;46.736;15.666;2023-05-23T04:56:54;56955.81;;;-143.57;100.00
55217;BME280;41086;46.736;15.666;2023-05-23T04:59:23;56955.81;;;-143.57;100.00
55217;BME280;41086;46.736;15.666;2023-05-23T05:01:50;56955.81;;;-143.57;100.00
55217;BME280;41086;46.736;15.666;2023-05-23T05:04:18;56955.81;;;-143.57;100.00
55217;BME280;41086;46.736;15.666;2023-05-23T05:06:45;56955.81;;;-143.57;100.00
55217;BME280;41086;46.736;15.666;2023-05-23T05:09:13;56955.81;;;-143.57;100.00
55217;BME280;41086;46.736;15.666;2023-05-23T05:11:42;56955.81;;;-143.57;100.00
55217;BME280;41086;46.736;15.666;2023-05-23T05:14:09;56955.81;;;-143.57;100.00
55217;BME280;41086;46.736;15.666;2023-05-23T05:16:36;56955.81;;;-143.57;100.00
55217;BME280;41086;46.736;15.666;2023-05-23T05:19:04;56955.81;;;-143.57;100.00
55217;BME280;41086;46.736;15.666;2023-05-23T05:21:31;56955.81;;;-143.57;100.00
55217;BME280;41086;46.736;15.666;2023-05-23T05:23:58;56955.81;;;-143.57;100.00
55217;BME280;41086;46.736;15.666;2023-05-23T05:26:25;56955.81;;;-143.57;100.00
55217;BME280;41086;46.736;15.666;2023-05-23T05:28:53;56955.81;;;-143.57;100.00
55217;BME280;41086;46.736;15.666;2023-05-23T05:31:21;56955.81;;;-143.57;100.00
55217;BME280;41086;46.736;15.666;2023-05-23T05:33:47;56955.81;;;-143.57;100.00
55217;BME280;41086;46.736;15.666;2023-05-23T05:36:15;56955.81;;;-143.57;100.00
55217;BME280;41086;46.736;15.666;2023-05-23T05:38:43;56955.81;;;-143.57;100.00
55217;BME280;41086;46.736;15.666;2023-05-23T05:41:11;56955.81;;;-143.57;100.00
55217;BME280;41086;46.736;15.666;2023-05-23T05:43:42;56955.81;;;-143.57;100.00
55217;BME280;41086;46.736;15.666;2023-05-23T05:46:10;56955.81;;;-143.57;100.00
55217;BME280;41086;46.736;15.666;2023-05-23T05:48:36;56955.81;;;-143.57;100.00
55217;BME280;41086;46.736;15.666;2023-05-23T05:51:06;56955.81;;;-143.57;100.00
55217;BME280;41086;46.736;15.666;2023-05-23T05:53:33;56955.81;;;-143.57;100.00
55217;BME280;41086;46.736;15.666;2023-05-23T05:56:01;56955.81;;;-143.57;100.00
55217;BME280;41086;46.736;15.666;2023-05-23T05:58:29;56955.81;;;-143.57;100.00
55217;BME280;41086;46.736;15.666;2023-05-23T06:01:01;56955.81;;;-143.57;100.00
55217;BME280;41086;46.736;15.666;2023-05-23T06:03:29;56955.81;;;-143.57;100.00
55217;BME280;41086;46.736;15.666;2023-05-23T06:05:57;56955.81;;;-143.57;100.00
55217;BME280;41086;46.736;15.666;2023-05-23T06:08:23;56955.81;;;-143.57;100.00
55217;BME280;41086;46.736;15.666;2023-05-23T06:10:50;56955.81;;;-143.57;100.00
55217;BME280;41086;46.736;15.666;2023-05-23T06:13:17;56955.81;;;-143.57;100.00
55217;BME280;41086;46.736;15.666;2023-05-23T06:15:49;56955.81;;;-143.57;100.00
55217;BME280;41086;46.736;15.666;2023-05-23T06:18:16;56955.81;;;-143.57;100.00
55217;BME280;41086;46.736;15.666;2023-05-23T06:20:43;56955.81;;;-143.57;100.00
55217;BME280;41086;46.736;15.666;2023-05-23T06:23:14;56955.81;;;-143.57;100.00
55217;BME280;41086;46.736;15.666;2023-05-23T06:25:40;56955.81;;;-143.57;100.00
55217;BME280;41086;46.736;15.666;2023-05-23T06:28:07;56955.81;;;-143.57;100.00
55217;BME280;41086;46.736;15.666;2023-05-23T06:30:34;56955.81;;;-143.57;100.00
55217;BME280;41086;46.736;15.666;2023-05-23T06:33:03;56955.81;;;-143.57;100.00
55217;BME280;41086;46.736;15.666;2023-05-23T06:35:30;56955.81;;;-143.57;100.00
55217;BME280;41086;46.736;15.666;2023-05-23T06:37:59;56955.81;;;-143.57;100.00
55217;BME280;41086;46.736;15.666;2023-05-23T06:40:26;56955.81;;;-143.57;100.00
55217;BME280;41086;46.736;15.666;2023-05-23T06:42:53;56955.81;;;-143.57;100.00
55217;BME280;41086;46.736;15.666;2023-05-23T06:45:52;56955.81;;;-143.57;100.00
55217;BME280;41086;46.736;15.666;2023-05-23T06:48:19;56955.81;;;-143.57;100.00
55217;BME280;41086;46.736;15.666;2023-05-23T06:50:48;56955.81;;;-143.57;100.00
55217;BME280;41086;46.736;15.666;2023-05-23T06:53:14;56955.81;;;-143.57;100.00
55217;BME280;41086;46.736;15.666;2023-05-23T06:55:45;56955.81;;;-143.57;100.00
55217;BME280;41086;46.736;15.666;2023-05-23T06:58:16;56955.81;;;-143.57;100.00
55217;BME280;41086;46.736;15.666;2023-05-23T07:00:46;56955.81;;;-143.57;100.00
55217;BME280;41086;46.736;15.666;2023-05-23T07:03:23;56955.81;;;-143.57;100.00
55217;BME280;41086;46.736;15.666;2023-05-23T07:05:50;56955.81;;;-143.57;100.00
55217;BME280;41086;46.736;15.666;2023-05-23T07:08:18;56955.81;;;-143.57;100.00
55217;BME280;41086;46.736;15.666;2023-05-23T07:10:56;56955.81;;;-143.57;100.00
55217;BME280;41086;46.736;15.666;2023-05-23T07:13:52;56955.81;;;-143.57;100.00
55217;BME280;41086;46.736;15.666;2023-05-23T07:16:29;56955.81;;;-143.57;100.00
55217;BME280;41086;46.736;15.666;2023-05-23T07:19:01;56955.81;;;-143.57;100.00
55217;BME280;41086;46.736;15.666;2023-05-23T07:21:30;56955.81;;;-143.57;100.00
55217;BME280;41086;46.736;15.666;2023-05-23T07:23:57;56955.81;;;-143.57;100.00
55217;BME280;41086;46.736;15.666;2023-05-23T07:26:24;56955.81;;;-143.57;100.00
55217;BME280;41086;46.736;15.666;2023-05-23T07:28:54;56955.81;;;-143.57;100.00
55217;BME280;41086;46.736;15.666;2023-05-23T07:31:21;56955.81;;;-143.57;100.00
55217;BME280;41086;46.736;15.666;2023-05-23T07:33:51;56955.81;;;-143.57;100.00
55217;BME280;41086;46.736;15.666;2023-05-23T07:36:28;56955.81;;;-143.57;100.00
55217;BME280;41086;46.736;15.666;2023-05-23T07:39:00;56955.81;;;-143.57;100.00
55217;BME280;41086;46.736;15.666;2023-05-23T07:41:27;56955.81;;;-143.57;100.00
55217;BME280;41086;46.736;15.666;2023-05-23T07:43:54;56955.81;;;-143.57;100.00
55217;BME280;41086;46.736;15.666;2023-05-23T07:46:21;56955.81;;;-143.57;100.00
55217;BME280;41086;46.736;15.666;2023-05-23T07:48:48;56955.81;;;-143.57;100.00
55217;BME280;41086;46.736;15.666;2023-05-23T07:51:15;56955.81;;;-143.57;100.00
55217;BME280;41086;46.736;15.666;2023-05-23T07:53:48;56955.81;;;-143.57;100.00
55217;BME280;41086;46.736;15.666;2023-05-23T07:56:17;56955.81;;;-143.57;100.00
55217;BME280;41086;46.736;15.666;2023-05-23T07:58:44;56955.81;;;-143.57;100.00
55217;BME280;41086;46.736;15.666;2023-05-23T08:01:11;56955.81;;;-143.57;100.00
55217;BME280;41086;46.736;15.666;2023-05-23T08:04:04;56955.81;;;-143.57;100.00
55217;BME280;41086;46.736;15.666;2023-05-23T08:06:37;56955.81;;;-143.57;100.00
55217;BME280;41086;46.736;15.666;2023-05-23T08:09:11;56955.81;;;-143.57;100.00
55217;BME280;41086;46.736;15.666;2023-05-23T08:11:44;56955.81;;;-143.57;100.00
55217;BME280;41086;46.736;15.666;2023-05-23T08:14:11;56955.81;;;-143.57;100.00
55217;BME280;41086;46.736;15.666;2023-05-23T08:16:37;56955.81;;;-143.57;100.00
55217;BME280;41086;46.736;15.666;2023-05-23T08:19:14;56955.81;;;-143.57;100.00
55217;BME280;41086;46.736;15.666;2023-05-23T08:21:41;56955.81;;;-143.57;100.00
55217;BME280;41086;46.736;15.666;2023-05-23T08:24:08;56955.81;;;-143.57;100.00
55217;BME280;41086;46.736;15.666;2023-05-23T08:26:36;56955.81;;;-143.57;100.00
55217;BME280;41086;46.736;15.666;2023-05-23T08:29:04;56955.81;;;-143.57;100.00
55217;BME280;41086;46.736;15.666;2023-05-23T08:31:31;56955.81;;;-143.57;100.00
55217;BME280;41086;46.736;15.666;2023-05-23T08:34:02;56955.81;;;-143.57;100.00
55217;BME280;41086;46.736;15.666;2023-05-23T08:36:30;56955.81;;;-143.57;100.00
55217;BME280;41086;46.736;15.666;2023-05-23T08:39:03;56955.81;;;-143.57;100.00
55217;BME280;41086;46.736;15.666;2023-05-23T08:41:35;56955.81;;;-143.57;100.00
55217;BME280;41086;46.736;15.666;2023-05-23T08:44:06;56955.81;;;-143.57;100.00
55217;BME280;41086;46.736;15.666;2023-05-23T08:46:45;56955.81;;;-143.57;100.00
55217;BME280;41086;46.736;15.666;2023-05-23T08:49:22;56955.81;;;-143.57;100.00
55217;BME280;41086;46.736;15.666;2023-05-23T08:51:51;56955.81;;;-143.57;100.00
55217;BME280;41086;46.736;15.666;2023-05-23T08:54:21;56955.81;;;-143.57;100.00
55217;BME280;41086;46.736;15.666;2023-05-23T08:56:48;56955.81;;;-143.57;100.00
55217;BME280;41086;46.736;15.666;2023-05-23T08:59:19;56955.81;;;-143.57;100.00
55217;BME280;41086;46.736;15.666;2023-05-23T09:01:47;56955.81;;;-143.57;100.00
55217;BME280;41086;46.736;15.666;2023-05-23T09:04:15;56955.81;;;-143.57;100.00
55217;BME280;41086;46.736;15.666;2023-05-23T09:07:08;56955.81;;;-143.57;100.00
55217;BME280;41086;46.736;15.666;2023-05-23T09:09:37;56955.81;;;-143.57;100.00
55217;BME280;41086;46.736;15.666;2023-05-23T09:12:07;56955.81;;;-143.57;100.00
55217;BME280;41086;46.736;15.666;2023-05-23T09:14:36;56955.81;;;-143.57;100.00
55217;BME280;41086;46.736;15.666;2023-05-23T09:17:06;56955.81;;;-143.57;100.00
55217;BME280;41086;46.736;15.666;2023-05-23T09:19:33;56955.81;;;-143.57;100.00
55217;BME280;41086;46.736;15.666;2023-05-23T09:22:13;56955.81;;;-143.57;100.00
55217;BME280;41086;46.736;15.666;2023-05-23T09:24:56;56955.81;;;-143.57;100.00
55217;BME280;41086;46.736;15.666;2023-05-23T09:27:23;56955.81;;;-143.57;100.00
55217;BME280;41086;46.736;15.666;2023-05-23T09:29:50;56955.81;;;-143.57;100.00
55217;BME280;41086;46.736;15.666;2023-05-23T09:32:20;56955.81;;;-143.57;100.00
55217;BME280;41086;46.736;15.666;2023-05-23T09:34:57;56955.81;;;-143.57;100.00
55217;BME280;41086;46.736;15.666;2023-05-23T09:40:00;56955.81;;;-143.57;100.00
55217;BME280;41086;46.736;15.666;2023-05-23T09:42:32;56955.81;;;-143.57;100.00
55217;BME280;41086;46.736;15.666;2023-05-23T09:44:59;56955.81;;;-143.57;100.00
55217;BME280;41086;46.736;15.666;2023-05-23T09:47:30;56955.81;;;-143.57;100.00
55217;BME280;41086;46.736;15.666;2023-05-23T09:49:57;56955.81;;;-143.57;100.00
55217;BME280;41086;46.736;15.666;2023-05-23T09:52:24;56955.81;;;-143.57;100.00
55217;BME280;41086;46.736;15.666;2023-05-23T09:54:53;56955.81;;;-143.57;100.00
55217;BME280;41086;46.736;15.666;2023-05-23T09:57:21;56955.81;;;-143.57;100.00
55217;BME280;41086;46.736;15.666;2023-05-23T09:59:52;56955.81;;;-143.57;100.00
55217;BME280;41086;46.736;15.666;2023-05-23T10:05:14;56955.81;;;-143.57;100.00
55217;BME280;41086;46.736;15.666;2023-05-23T10:07:44;56955.81;;;-143.57;100.00
55217;BME280;41086;46.736;15.666;2023-05-23T10:10:12;56955.81;;;-143.57;100.00
55217;BME280;41086;46.736;15.666;2023-05-23T10:12:51;56955.81;;;-143.57;100.00
55217;BME280;41086;46.736;15.666;2023-05-23T10:15:20;56955.81;;;-143.57;100.00
55217;BME280;41086;46.736;15.666;2023-05-23T10:18:11;56955.81;;;-143.57;100.00
55217;BME280;41086;46.736;15.666;2023-05-23T10:20:47;56955.81;;;-143.57;100.00
55217;BME280;41086;46.736;15.666;2023-05-23T10:23:15;56955.81;;;-143.57;100.00
55217;BME280;41086;46.736;15.666;2023-05-23T10:25:43;56955.81;;;-143.57;100.00
55217;BME280;41086;46.736;15.666;2023-05-23T10:28:11;56955.81;;;-143.57;100.00
55217;BME280;41086;46.736;15.666;2023-05-23T10:30:39;56955.81;;;-143.57;100.00
55217;BME280;41086;46.736;15.666;2023-05-23T10:33:07;56955.81;;;-143.57;100.00
55217;BME280;41086;46.736;15.666;2023-05-23T10:38:40;56955.81;;;-143.57;100.00
55217;BME280;41086;46.736;15.666;2023-05-23T10:41:12;56955.81;;;-143.57;100.00
55217;BME280;41086;46.736;15.666;2023-05-23T10:43:50;56955.81;;;-143.57;100.00
55217;BME280;41086;46.736;15.666;2023-05-23T10:46:20;56955.81;;;-143.57;100.00
55217;BME280;41086;46.736;15.666;2023-05-23T10:48:53;56955.81;;;-143.57;100.00
55217;BME280;41086;46.736;15.666;2023-05-23T10:51:21;56955.81;;;-143.57;100.00
55217;BME280;41086;46.736;15.666;2023-05-23T10:53:53;56955.81;;;-143.57;100.00
55217;BME280;41086;46.736;15.666;2023-05-23T10:56:21;56955.81;;;-143.57;100.00
55217;BME280;41086;46.736;15.666;2023-05-23T10:58:53;56955.81;;;-143.57;100.00
55217;BME280;41086;46.736;15.666;2023-05-23T11:01:20;56955.81;;;-143.57;100.00
55217;BME280;41086;46.736;15.666;2023-05-23T11:03:52;56955.81;;;-143.57;100.00
55217;BME280;41086;46.736;15.666;2023-05-23T11:06:43;56955.81;;;-143.57;100.00
55217;BME280;41086;46.736;15.666;2023-05-23T11:09:15;56955.81;;;-143.57;100.00
55217;BME280;41086;46.736;15.666;2023-05-23T11:14:14;56955.81;;;-143.57;100.00
55217;BME280;41086;46.736;15.666;2023-05-23T11:16:43;56955.81;;;-143.57;100.00
55217;BME280;41086;46.736;15.666;2023-05-23T11:22:02;56955.81;;;-143.57;100.00
55217;BME280;41086;46.736;15.666;2023-05-23T11:24:51;56955.81;;;-143.57;100.00
55217;BME280;41086;46.736;15.666;2023-05-23T11:27:29;56955.81;;;-143.57;100.00
55217;BME280;41086;46.736;15.666;2023-05-23T11:29:58;56955.81;;;-143.57;100.00
55217;BME280;41086;46.736;15.666;2023-05-23T11:32:27;56955.81;;;-143.57;100.00
55217;BME280;41086;46.736;15.666;2023-05-23T11:35:03;56955.81;;;-143.57;100.00
55217;BME280;41086;46.736;15.666;2023-05-23T11:37:30;56955.81;;;-143.57;100.00
55217;BME280;41086;46.736;15.666;2023-05-23T11:39:58;56955.81;;;-143.57;100.00
55217;BME280;41086;46.736;15.666;2023-05-23T11:42:25;56955.81;;;-143.57;100.00
55217;BME280;41086;46.736;15.666;2023-05-23T11:44:52;56955.81;;;-143.57;100.00
55217;BME280;41086;46.736;15.666;2023-05-23T11:47:19;56955.81;;;-143.57;100.00
55217;BME280;41086;46.736;15.666;2023-05-23T11:49:47;56955.81;;;-143.57;100.00
55217;BME280;41086;46.736;15.666;2023-05-23T11:52:14;56955.81;;;-143.57;100.00
55217;BME280;41086;46.736;15.666;2023-05-23T11:54:41;56955.81;;;-143.57;100.00
55217;BME280;41086;46.736;15.666;2023-05-23T11:57:09;56955.81;;;-143.57;100.00
55217;BME280;41086;46.736;15.666;2023-05-23T11:59:37;56955.81;;;-143.57;100.00
55217;BME280;41086;46.736;15.666;2023-05-23T12:02:05;56955.81;;;-143.57;100.00
55217;BME280;41086;46.736;15.666;2023-05-23T12:04:34;56955.81;;;-143.57;100.00
55217;BME280;41086;46.736;15.666;2023-05-23T12:07:04;56955.81;;;-143.57;100.00
55217;BME280;41086;46.736;15.666;2023-05-23T12:09:40;56955.81;;;-143.57;100.00
55217;BME280;41086;46.736;15.666;2023-05-23T12:12:09;56955.81;;;-143.57;100.00
55217;BME280;41086;46.736;15.666;2023-05-23T12:14:38;56955.81;;;-143.57;100.00
55217;BME280;41086;46.736;15.666;2023-05-23T12:17:11;56955.81;;;-143.57;100.00
55217;BME280;41086;46.736;15.666;2023-05-23T12:19:39;56955.81;;;-143.57;100.00
55217;BME280;41086;46.736;15.666;2023-05-23T12:22:06;56955.81;;;-143.57;100.00
55217;BME280;41086;46.736;15.666;2023-05-23T12:24:44;56955.81;;;-143.57;100.00
55217;BME280;41086;46.736;15.666;2023-05-23T12:27:12;56955.81;;;-143.57;100.00
55217;BME280;41086;46.736;15.666;2023-05-23T12:29:39;56955.81;;;-143.57;100.00
55217;BME280;41086;46.736;15.666;2023-05-23T12:32:06;56955.81;;;-143.57;100.00
55217;BME280;41086;46.736;15.666;2023-05-23T12:34:33;56955.81;;;-143.57;100.00
55217;BME280;41086;46.736;15.666;2023-05-23T12:37:00;56955.81;;;-143.57;100.00
55217;BME280;41086;46.736;15.666;2023-05-23T12:39:35;56955.81;;;-143.57;100.00
55217;BME280;41086;46.736;15.666;2023-05-23T12:42:09;56955.81;;;-143.57;100.00
55217;BME280;41086;46.736;15.666;2023-05-23T12:44:40;56955.81;;;-143.57;100.00
55217;BME280;41086;46.736;15.666;2023-05-23T12:47:07;56955.81;;;-143.57;100.00
55217;BME280;41086;46.736;15.666;2023-05-23T12:49:34;56955.81;;;-143.57;100.00
55217;BME280;41086;46.736;15.666;2023-05-23T12:52:01;56955.81;;;-143.57;100.00
55217;BME280;41086;46.736;15.666;2023-05-23T12:54:27;56955.81;;;-143.57;100.00